createdAt,value
2024-02-02T00:00:18.050Z,72.37
2024-02-02T00:03:06.739Z,72.43
2024-02-02T00:05:35.175Z,72.34
2024-02-02T00:08:03.348Z,72.28
2024-02-02T00:10:31.520Z,72.45
2024-02-02T00:12:59.695Z,72.26
2024-02-02T00:15:28.079Z,72.48
2024-02-02T00:17:56.455Z,72.43
2024-02-02T00:20:24.816Z,72.47
2024-02-02T00:22:56.470Z,72.69
2024-02-02T00:25:25.135Z,72.72
2024-02-02T00:27:54.035Z,72.75
2024-02-02T00:30:22.767Z,72.74
2024-02-02T00:32:51.071Z,72.82
2024-02-02T00:35:19.297Z,72.79
2024-02-02T00:37:48.258Z,72.86
2024-02-02T00:40:19.169Z,73.03
2024-02-02T00:42:49.120Z,72.98
2024-02-02T00:45:17.304Z,72.85
2024-02-02T00:47:45.521Z,72.98
2024-02-02T00:50:13.810Z,73.03
2024-02-02T00:52:42.625Z,72.94
2024-02-02T00:55:10.894Z,72.91
2024-02-02T00:57:39.172Z,72.89
2024-02-02T01:00:11.949Z,72.95
2024-02-02T01:02:43.214Z,72.87
2024-02-02T01:05:11.473Z,72.87
2024-02-02T01:07:39.622Z,72.77
2024-02-02T01:10:08.254Z,72.77
2024-02-02T01:12:36.785Z,72.69
2024-02-02T01:15:05.592Z,72.55
2024-02-02T01:17:33.894Z,72.53
2024-02-02T01:20:04.977Z,72.40
2024-02-02T01:22:33.832Z,72.52
2024-02-02T01:25:01.950Z,72.28
2024-02-02T01:27:30.115Z,72.34
2024-02-02T01:29:58.324Z,72.15
2024-02-02T01:32:26.419Z,72.17
2024-02-02T01:34:54.999Z,72.01
2024-02-02T01:37:23.245Z,72.09
2024-02-02T01:39:51.393Z,71.96
2024-02-02T01:42:19.638Z,72.07
2024-02-02T01:44:47.800Z,71.91
2024-02-02T01:47:16.113Z,71.92
2024-02-02T01:49:44.474Z,71.96
2024-02-02T01:52:13.228Z,72.04
2024-02-02T01:54:42.505Z,72.04
2024-02-02T01:57:10.756Z,72.00
2024-02-02T01:59:38.974Z,72.26
2024-02-02T02:02:07.984Z,72.26
2024-02-02T02:04:36.510Z,72.33
2024-02-02T02:07:04.997Z,72.33
2024-02-02T02:09:34.980Z,72.33
2024-02-02T02:12:03.311Z,72.44
2024-02-02T02:14:31.679Z,72.49
2024-02-02T02:16:59.789Z,72.56
2024-02-02T02:19:28.036Z,72.69
2024-02-02T02:21:56.332Z,72.65
2024-02-02T02:24:24.666Z,72.70
2024-02-02T02:26:53.070Z,72.74
2024-02-02T02:29:21.337Z,72.68
2024-02-02T02:31:56.269Z,72.61
2024-02-02T02:34:28.093Z,72.63
2024-02-02T02:36:56.752Z,72.53
2024-02-02T02:39:24.957Z,72.68
2024-02-02T02:41:53.212Z,72.61
2024-02-02T02:44:22.065Z,72.58
2024-02-02T02:46:53.253Z,72.49
2024-02-02T02:49:21.751Z,72.35
2024-02-02T02:51:50.176Z,72.40
2024-02-02T02:54:18.360Z,72.09
2024-02-02T02:56:46.735Z,72.14
2024-02-02T02:59:17.888Z,72.23
2024-02-02T03:01:46.091Z,72.16
2024-02-02T03:04:14.647Z,72.30
2024-02-02T03:06:42.982Z,72.10
2024-02-02T03:09:13.019Z,72.09
2024-02-02T03:11:41.420Z,72.27
2024-02-02T03:14:09.490Z,72.16
2024-02-02T03:16:37.703Z,72.10
2024-02-02T03:19:06.796Z,72.11
2024-02-02T03:21:36.381Z,72.06
2024-02-02T03:24:05.761Z,71.95
2024-02-02T03:26:33.873Z,72.00
2024-02-02T03:29:02.202Z,72.05
2024-02-02T03:31:31.569Z,72.32
2024-02-02T03:33:59.896Z,72.28
2024-02-02T03:36:28.200Z,72.33
2024-02-02T03:38:56.359Z,72.53
2024-02-02T03:41:24.663Z,72.64
2024-02-02T03:43:55.215Z,72.68
2024-02-02T03:46:23.627Z,72.53
2024-02-02T03:48:53.248Z,72.46
2024-02-02T03:51:21.440Z,72.72
2024-02-02T03:53:49.637Z,72.58
2024-02-02T03:56:17.819Z,72.69
2024-02-02T03:58:46.102Z,72.57
2024-02-02T04:01:14.280Z,72.57
2024-02-02T04:03:42.520Z,72.72
2024-02-02T04:06:10.804Z,72.71
2024-02-02T04:08:40.055Z,72.87
2024-02-02T04:11:09.761Z,72.75
2024-02-02T04:13:38.023Z,72.84
2024-02-02T04:16:06.684Z,72.93
2024-02-02T04:18:35.047Z,72.86
2024-02-02T04:21:03.701Z,72.74
2024-02-02T04:23:32.050Z,72.77
2024-02-02T04:26:00.199Z,72.74
2024-02-02T04:28:28.370Z,72.69
2024-02-02T04:30:56.511Z,72.83
2024-02-02T04:33:25.147Z,72.62
2024-02-02T04:35:53.369Z,72.40
2024-02-02T04:38:21.779Z,72.22
2024-02-02T04:40:49.937Z,72.12
2024-02-02T04:43:18.163Z,71.83
2024-02-02T04:45:46.311Z,71.99
2024-02-02T04:48:15.610Z,72.04
2024-02-02T04:50:44.010Z,72.21
2024-02-02T04:53:14.342Z,72.07
2024-02-02T04:55:42.776Z,72.15
2024-02-02T04:58:10.873Z,72.07
2024-02-02T05:00:39.475Z,72.18
2024-02-02T05:03:07.819Z,72.26
2024-02-02T05:05:36.238Z,72.23
2024-02-02T05:08:05.260Z,72.21
2024-02-02T05:10:33.637Z,72.26
2024-02-02T05:13:02.118Z,72.40
2024-02-02T05:15:30.468Z,72.24
2024-02-02T05:17:58.700Z,72.46
2024-02-02T05:20:26.998Z,72.35
2024-02-02T05:22:55.154Z,72.39
2024-02-02T05:25:23.988Z,72.44
2024-02-02T05:27:52.158Z,72.24
2024-02-02T05:30:21.915Z,72.21
2024-02-02T05:32:50.158Z,72.30
2024-02-02T05:35:18.493Z,72.11
2024-02-02T05:37:46.622Z,72.25
2024-02-02T05:40:14.889Z,72.15
2024-02-02T05:42:45.169Z,72.10
2024-02-02T05:45:13.824Z,72.14
2024-02-02T05:47:42.068Z,72.11
2024-02-02T05:50:10.568Z,72.15
2024-02-02T05:52:38.677Z,72.14
2024-02-02T05:55:07.098Z,72.19
2024-02-02T05:57:35.333Z,72.22
2024-02-02T06:00:04.972Z,72.23
2024-02-02T06:02:33.665Z,72.37
2024-02-02T06:05:02.030Z,72.30
2024-02-02T06:07:30.494Z,72.35
2024-02-02T06:09:58.626Z,72.37
2024-02-02T06:12:26.795Z,72.45
2024-02-02T06:14:54.947Z,72.55
2024-02-02T06:17:23.094Z,72.68
2024-02-02T06:19:51.380Z,72.84
2024-02-02T06:22:22.466Z,73.08
2024-02-02T06:24:50.934Z,73.05
2024-02-02T06:27:23.710Z,73.22
2024-02-02T06:29:52.193Z,73.18
2024-02-02T06:32:23.480Z,73.46
2024-02-02T06:34:57.224Z,73.56
2024-02-02T06:37:26.427Z,73.70
2024-02-02T06:39:56.205Z,73.69
2024-02-02T06:42:26.248Z,73.68
2024-02-02T06:44:56.629Z,73.72
2024-02-02T06:47:25.218Z,73.69
2024-02-02T06:49:53.494Z,73.59
2024-02-02T06:52:22.995Z,73.69
2024-02-02T06:54:51.582Z,73.64
2024-02-02T06:57:32.853Z,73.61
2024-02-02T07:00:01.693Z,73.66
2024-02-02T07:02:32.093Z,73.64
2024-02-02T07:05:00.980Z,73.80
2024-02-02T07:07:29.373Z,73.66
2024-02-02T07:09:57.666Z,73.84
2024-02-02T07:12:51.005Z,73.62
2024-02-02T07:15:21.131Z,73.95
2024-02-02T07:17:50.450Z,74.10
2024-02-02T07:20:24.838Z,74.11
2024-02-02T07:22:59.419Z,73.98
2024-02-02T07:25:29.127Z,73.95
2024-02-02T07:27:57.643Z,74.10
2024-02-02T07:30:32.347Z,74.08
2024-02-02T07:33:01.239Z,73.83
2024-02-02T07:35:33.889Z,73.93
2024-02-02T07:38:05.276Z,73.81
2024-02-02T07:40:56.702Z,73.91
2024-02-02T07:43:25.131Z,73.71
2024-02-02T07:45:53.310Z,73.88
2024-02-02T07:48:21.497Z,74.07
2024-02-02T07:50:49.712Z,74.64
2024-02-02T07:53:18.241Z,75.11
2024-02-02T07:55:46.512Z,75.58
2024-02-02T07:58:14.739Z,76.42
2024-02-02T08:00:43.627Z,76.94
2024-02-02T08:03:13.728Z,76.95
2024-02-02T08:05:42.385Z,77.18
2024-02-02T08:08:11.155Z,77.46
2024-02-02T08:10:44.185Z,77.61
2024-02-02T08:13:14.047Z,77.56
2024-02-02T08:15:42.762Z,77.74
2024-02-02T08:18:12.182Z,77.96
2024-02-02T08:20:40.611Z,77.96
2024-02-02T08:23:08.792Z,78.02
2024-02-02T08:25:37.001Z,78.14
2024-02-02T08:28:05.570Z,78.06
2024-02-02T08:30:33.926Z,78.11
2024-02-02T08:33:02.315Z,78.11
2024-02-02T08:35:30.992Z,78.23
2024-02-02T08:38:01.937Z,78.14
2024-02-02T08:40:46.601Z,78.12
2024-02-02T08:43:24.040Z,78.03
2024-02-02T08:46:04.896Z,78.29
2024-02-02T08:48:34.480Z,78.13
2024-02-02T08:51:03.454Z,78.31
2024-02-02T08:53:32.382Z,78.41
2024-02-02T08:56:02.387Z,78.44
2024-02-02T08:58:36.257Z,78.59
2024-02-02T09:01:05.861Z,78.68
2024-02-02T09:03:42.081Z,78.86
2024-02-02T09:06:22.783Z,78.94
2024-02-02T09:08:50.935Z,78.94
2024-02-02T09:11:21.897Z,79.10
2024-02-02T09:14:02.030Z,79.13
2024-02-02T09:16:41.595Z,79.35
2024-02-02T09:19:24.294Z,79.63
2024-02-02T09:21:53.852Z,79.80
2024-02-02T09:24:49.060Z,79.87
2024-02-02T09:27:31.282Z,79.90
2024-02-02T09:30:00.594Z,80.25
2024-02-02T09:32:30.133Z,80.25
2024-02-02T09:35:02.181Z,80.40
2024-02-02T09:37:44.270Z,80.32
2024-02-02T09:40:57.609Z,80.26
2024-02-02T09:43:55.104Z,80.12
2024-02-02T09:46:45.135Z,80.21
2024-02-02T09:49:37.293Z,80.18
2024-02-02T09:52:46.981Z,80.11
2024-02-02T09:55:18.125Z,80.15
2024-02-02T09:57:51.025Z,79.99
2024-02-02T10:00:31.104Z,80.04
2024-02-02T10:03:35.644Z,79.92
2024-02-02T10:06:19.397Z,80.00
2024-02-02T10:09:02.373Z,80.04
2024-02-02T10:11:50.882Z,79.98
2024-02-02T10:14:21.843Z,80.03
2024-02-02T10:16:58.433Z,79.95
2024-02-02T10:19:48.824Z,79.82
2024-02-02T10:22:40.099Z,79.81
2024-02-02T10:25:14.140Z,79.94
2024-02-02T10:28:08.685Z,79.49
2024-02-02T10:30:55.534Z,79.40
2024-02-02T10:33:39.283Z,79.21
2024-02-02T10:36:16.500Z,79.03
2024-02-02T10:38:55.029Z,78.70
2024-02-02T10:41:35.366Z,78.34
2024-02-02T10:44:15.466Z,78.15
2024-02-02T10:46:52.260Z,78.01
2024-02-02T10:49:36.500Z,77.95
2024-02-02T10:52:21.767Z,77.83
2024-02-02T10:55:05.371Z,77.87
2024-02-02T10:57:51.118Z,77.71
2024-02-02T11:00:25.304Z,77.58
2024-02-02T11:03:00.085Z,77.53
2024-02-02T11:05:40.981Z,77.45
2024-02-02T11:08:17.479Z,77.21
2024-02-02T11:10:55.685Z,77.11
2024-02-02T11:14:06.352Z,77.13
2024-02-02T11:17:14.111Z,77.06
2024-02-02T11:20:02.743Z,77.00
2024-02-02T11:22:58.409Z,77.06
2024-02-02T11:25:55.165Z,77.07
2024-02-02T11:28:35.169Z,77.04
2024-02-02T11:31:28.576Z,77.10
2024-02-02T11:34:08.016Z,77.05
2024-02-02T11:37:03.579Z,77.19
2024-02-02T11:40:01.430Z,77.08
2024-02-02T11:42:31.682Z,77.11
2024-02-02T11:45:01.962Z,77.02
2024-02-02T11:47:34.076Z,77.02
2024-02-02T11:50:07.857Z,76.78
2024-02-02T11:52:43.424Z,76.71
2024-02-02T11:55:24.289Z,76.53
2024-02-02T11:57:56.817Z,76.49
2024-02-02T12:00:40.364Z,76.65
2024-02-02T12:03:15.450Z,76.51
2024-02-02T12:05:57.383Z,76.10
2024-02-02T12:09:13.443Z,76.06
2024-02-02T12:11:47.459Z,76.02
2024-02-02T12:14:34.004Z,76.12
2024-02-02T12:17:02.276Z,75.96
2024-02-02T12:19:31.698Z,75.45
2024-02-02T12:22:00.138Z,75.36
2024-02-02T12:24:30.011Z,75.36
2024-02-02T12:26:59.460Z,75.09
2024-02-02T12:29:27.864Z,75.03
2024-02-02T12:31:56.128Z,74.87
2024-02-02T12:34:25.724Z,74.88
2024-02-02T12:36:54.036Z,75.01
2024-02-02T12:39:22.861Z,74.62
2024-02-02T12:41:52.358Z,74.74
2024-02-02T12:44:20.553Z,74.44
2024-02-02T12:46:49.016Z,74.55
2024-02-02T12:49:17.575Z,74.36
2024-02-02T12:51:46.157Z,74.34
2024-02-02T12:54:14.942Z,74.41
2024-02-02T12:56:43.803Z,74.05
2024-02-02T12:59:14.313Z,74.35
2024-02-02T13:01:43.069Z,74.51
2024-02-02T13:04:14.064Z,74.43
2024-02-02T13:06:43.661Z,74.56
2024-02-02T13:09:19.379Z,74.69
2024-02-02T13:11:48.372Z,74.92
2024-02-02T13:14:40.619Z,75.12
2024-02-02T13:17:16.282Z,75.46
2024-02-02T13:19:47.543Z,75.70
2024-02-02T13:22:32.793Z,75.72
2024-02-02T13:25:03.488Z,76.24
2024-02-02T13:27:32.479Z,76.57
2024-02-02T13:30:03.839Z,76.93
2024-02-02T13:32:34.900Z,77.09
2024-02-02T13:35:09.546Z,77.27
2024-02-02T13:37:44.513Z,77.72
2024-02-02T13:40:14.439Z,77.94
2024-02-02T13:42:43.326Z,78.07
2024-02-02T13:45:18.626Z,78.35
2024-02-02T13:48:01.727Z,78.56
2024-02-02T13:50:39.452Z,78.63
2024-02-02T13:53:08.118Z,78.90
2024-02-02T13:55:36.860Z,78.99
2024-02-02T13:58:06.627Z,79.30
2024-02-02T14:00:35.033Z,79.27
2024-02-02T14:03:11.436Z,79.37
2024-02-02T14:05:41.264Z,79.48
2024-02-02T14:08:09.883Z,79.64
2024-02-02T14:10:49.432Z,79.68
2024-02-02T14:13:23.127Z,79.84
2024-02-02T14:15:53.722Z,79.71
2024-02-02T14:18:22.480Z,79.65
2024-02-02T14:20:50.731Z,79.65
2024-02-02T14:23:18.874Z,79.61
2024-02-02T14:25:47.051Z,79.56
2024-02-02T14:28:19.012Z,79.56
2024-02-02T14:30:48.175Z,79.46
2024-02-02T14:33:25.415Z,79.68
2024-02-02T14:35:55.229Z,79.58
2024-02-02T14:38:23.529Z,79.84
2024-02-02T14:40:54.297Z,79.82
2024-02-02T14:43:22.695Z,79.95
2024-02-02T14:45:51.051Z,79.94
2024-02-02T14:48:20.757Z,80.06
2024-02-02T14:50:49.257Z,80.25
2024-02-02T14:53:17.470Z,79.97
2024-02-02T14:55:45.802Z,80.02
2024-02-02T14:58:14.883Z,80.18
2024-02-02T15:00:46.434Z,80.16
2024-02-02T15:03:15.368Z,80.19
2024-02-02T15:05:44.052Z,80.32
2024-02-02T15:08:12.868Z,80.32
2024-02-02T15:10:42.419Z,80.14
2024-02-02T15:13:11.894Z,80.22
2024-02-02T15:15:41.322Z,80.37
2024-02-02T15:18:09.755Z,80.43
2024-02-02T15:20:38.173Z,80.71
2024-02-02T15:23:06.539Z,80.89
2024-02-02T15:25:34.864Z,80.97
2024-02-02T15:28:03.309Z,81.06
2024-02-02T15:30:31.977Z,80.81
2024-02-02T15:33:00.198Z,81.14
2024-02-02T15:35:28.465Z,81.09
2024-02-02T15:37:56.544Z,81.23
2024-02-02T15:40:24.735Z,81.23
2024-02-02T15:42:52.998Z,81.40
2024-02-02T15:45:21.299Z,81.47
2024-02-02T15:47:52.021Z,81.38
2024-02-02T15:50:21.058Z,81.78
2024-02-02T15:52:49.402Z,82.12
2024-02-02T15:55:18.446Z,82.20
2024-02-02T15:57:52.138Z,82.21
2024-02-02T16:00:21.143Z,82.32
2024-02-02T16:02:49.959Z,82.51
2024-02-02T16:05:18.746Z,82.74
2024-02-02T16:07:47.141Z,82.83
2024-02-02T16:10:17.179Z,83.03
2024-02-02T16:12:45.447Z,83.23
2024-02-02T16:15:14.179Z,83.21
2024-02-02T16:17:42.911Z,83.35
2024-02-02T16:20:12.556Z,83.40
2024-02-02T16:22:45.161Z,83.42
2024-02-02T16:25:16.259Z,83.78
2024-02-02T16:27:44.569Z,83.70
2024-02-02T16:30:14.035Z,83.84
2024-02-02T16:32:42.193Z,83.90
2024-02-02T16:35:10.414Z,83.91
2024-02-02T16:37:40.731Z,84.11
2024-02-02T16:40:10.434Z,84.17
2024-02-02T16:42:44.273Z,84.39
2024-02-02T16:45:13.396Z,84.46
2024-02-02T16:47:41.651Z,84.39
2024-02-02T16:50:10.427Z,84.45
2024-02-02T16:52:38.666Z,84.76
2024-02-02T16:55:06.943Z,84.76
2024-02-02T16:57:35.572Z,84.90
2024-02-02T17:00:05.836Z,84.85
2024-02-02T17:02:36.235Z,85.01
2024-02-02T17:05:05.639Z,85.02
2024-02-02T17:07:34.021Z,85.30
2024-02-02T17:10:02.264Z,85.81
2024-02-02T17:12:30.574Z,86.03
2024-02-02T17:14:58.960Z,86.12
2024-02-02T17:17:27.274Z,86.02
2024-02-02T17:19:55.709Z,85.88
2024-02-02T17:22:23.908Z,86.04
2024-02-02T17:24:52.118Z,86.11
2024-02-02T17:27:20.439Z,86.10
2024-02-02T17:29:48.652Z,86.11
2024-02-02T17:32:17.821Z,86.25
2024-02-02T17:34:49.670Z,86.28
2024-02-02T17:37:18.121Z,86.56
2024-02-02T17:39:46.775Z,86.52
2024-02-02T17:42:15.161Z,86.53
2024-02-02T17:44:43.348Z,86.74
2024-02-02T17:47:11.921Z,86.85
2024-02-02T17:49:45.724Z,86.97
2024-02-02T17:52:17.619Z,86.91
2024-02-02T17:54:46.440Z,87.07
2024-02-02T17:57:14.877Z,86.97
2024-02-02T17:59:43.099Z,87.29
2024-02-02T18:02:11.999Z,87.15
2024-02-02T18:04:40.327Z,87.39
2024-02-02T18:07:10.687Z,87.66
2024-02-02T18:09:41.395Z,87.75
2024-02-02T18:12:13.479Z,87.63
2024-02-02T18:14:42.434Z,87.71
2024-02-02T18:17:15.634Z,87.91
2024-02-02T18:19:44.569Z,87.93
2024-02-02T18:22:12.907Z,88.05
2024-02-02T18:24:41.273Z,87.95
2024-02-02T18:27:09.498Z,88.08
2024-02-02T18:29:37.834Z,87.92
2024-02-02T18:32:06.228Z,88.07
2024-02-02T18:34:35.003Z,88.16
2024-02-02T18:37:03.366Z,88.30
2024-02-02T18:39:31.668Z,88.23
2024-02-02T18:42:05.382Z,88.25
2024-02-02T18:44:36.863Z,88.32
2024-02-02T18:47:05.417Z,88.30
2024-02-02T18:49:33.669Z,88.39
2024-02-02T18:52:01.927Z,88.11
2024-02-02T18:54:30.126Z,88.31
2024-02-02T18:56:58.296Z,88.48
2024-02-02T18:59:26.451Z,88.40
2024-02-02T19:01:56.560Z,88.49
2024-02-02T19:04:24.846Z,88.37
2024-02-02T19:06:53.180Z,88.34
2024-02-02T19:09:23.093Z,88.42
2024-02-02T19:11:51.272Z,88.38
2024-02-02T19:14:21.633Z,88.46
2024-02-02T19:16:50.186Z,88.45
2024-02-02T19:19:20.306Z,88.29
2024-02-02T19:21:48.882Z,88.47
2024-02-02T19:24:17.085Z,88.40
2024-02-02T19:26:45.260Z,88.48
2024-02-02T19:29:13.523Z,88.47
2024-02-02T19:31:41.988Z,88.57
2024-02-02T19:34:10.298Z,88.64
2024-02-02T19:36:38.576Z,88.71
2024-02-02T19:39:09.352Z,88.49
2024-02-02T19:41:37.791Z,88.68
2024-02-02T19:44:06.078Z,88.80
2024-02-02T19:46:35.204Z,88.64
2024-02-02T19:49:04.421Z,88.70
2024-02-02T19:51:33.336Z,88.72
2024-02-02T19:54:01.668Z,88.89
2024-02-02T19:56:29.880Z,88.99
2024-02-02T19:58:58.355Z,88.86
2024-02-02T20:01:27.192Z,88.72
2024-02-02T20:03:55.882Z,88.83
2024-02-02T20:06:24.346Z,88.92
2024-02-02T20:08:52.617Z,88.76
2024-02-02T20:11:22.356Z,88.90
2024-02-02T20:13:50.542Z,88.81
2024-02-02T20:16:20.770Z,88.86
2024-02-02T20:18:50.505Z,88.87
2024-02-02T20:21:20.637Z,88.85
2024-02-02T20:23:52.869Z,89.03
2024-02-02T20:26:21.629Z,89.12
2024-02-02T20:28:54.080Z,89.11
2024-02-02T20:31:22.479Z,89.17
2024-02-02T20:33:52.881Z,89.13
2024-02-02T20:36:24.154Z,89.12
2024-02-02T20:38:53.151Z,89.13
2024-02-02T20:41:26.614Z,89.21
2024-02-02T20:43:56.948Z,89.20
2024-02-02T20:46:25.678Z,89.19
2024-02-02T20:48:54.086Z,89.34
2024-02-02T20:51:22.679Z,89.31
2024-02-02T20:53:51.233Z,89.16
2024-02-02T20:56:19.828Z,89.30
2024-02-02T20:58:48.209Z,89.24
2024-02-02T21:01:16.675Z,89.28
2024-02-02T21:03:45.518Z,89.23
2024-02-02T21:06:14.406Z,89.16
2024-02-02T21:08:44.650Z,89.16
2024-02-02T21:11:13.207Z,89.16
2024-02-02T21:13:41.590Z,89.01
2024-02-02T21:16:09.806Z,89.04
2024-02-02T21:18:38.322Z,89.16
2024-02-02T21:21:07.494Z,89.02
2024-02-02T21:23:35.798Z,89.08
2024-02-02T21:26:04.108Z,89.06
2024-02-02T21:28:32.322Z,88.97
2024-02-02T21:31:00.699Z,88.96
2024-02-02T21:33:29.147Z,88.88
2024-02-02T21:35:58.518Z,88.95
2024-02-02T21:38:28.222Z,88.85
2024-02-02T21:40:56.562Z,88.76
2024-02-02T21:43:24.705Z,88.81
2024-02-02T21:45:52.871Z,88.64
2024-02-02T21:48:21.188Z,88.61
2024-02-02T21:50:49.454Z,88.76
2024-02-02T21:53:18.577Z,88.56
2024-02-02T21:55:46.984Z,88.56
2024-02-02T21:58:16.116Z,88.65
2024-02-02T22:00:44.596Z,88.71
2024-02-02T22:03:12.906Z,88.60
2024-02-02T22:05:41.409Z,88.58
2024-02-02T22:08:12.119Z,88.51
2024-02-02T22:10:40.285Z,88.35
2024-02-02T22:13:10.475Z,88.45
2024-02-02T22:15:39.163Z,88.35
2024-02-02T22:18:07.921Z,88.36
2024-02-02T22:20:36.151Z,88.20
2024-02-02T22:23:04.503Z,88.34
2024-02-02T22:25:32.993Z,88.31
2024-02-02T22:28:01.186Z,88.05
2024-02-02T22:30:29.419Z,88.12
2024-02-02T22:32:58.512Z,88.18
2024-02-02T22:35:26.885Z,88.14
2024-02-02T22:37:54.991Z,88.10
2024-02-02T22:40:23.097Z,88.11
2024-02-02T22:42:51.415Z,88.14
2024-02-02T22:45:19.602Z,87.95
2024-02-02T22:47:47.793Z,88.02
2024-02-02T22:50:16.172Z,88.03
2024-02-02T22:52:44.909Z,87.95
2024-02-02T22:55:13.104Z,87.91
2024-02-02T22:57:41.518Z,87.90
2024-02-02T23:00:11.452Z,87.77
2024-02-02T23:02:39.603Z,87.74
2024-02-02T23:05:09.471Z,87.74
2024-02-02T23:07:37.679Z,87.76
2024-02-02T23:10:06.107Z,87.76
2024-02-02T23:12:34.300Z,87.61
2024-02-02T23:15:02.655Z,87.65
2024-02-02T23:17:30.781Z,87.62
2024-02-02T23:19:59.012Z,87.61
2024-02-02T23:22:27.244Z,87.58
2024-02-02T23:24:55.929Z,87.57
2024-02-02T23:27:24.162Z,87.34
2024-02-02T23:29:52.265Z,87.20
2024-02-02T23:32:20.468Z,87.25
2024-02-02T23:34:48.811Z,86.99
2024-02-02T23:37:17.873Z,87.10
2024-02-02T23:39:46.242Z,86.85
2024-02-02T23:42:14.613Z,86.88
2024-02-02T23:44:43.639Z,86.64
2024-02-02T23:47:13.162Z,86.71
2024-02-02T23:49:42.590Z,86.62
2024-02-02T23:52:11.396Z,86.39
2024-02-02T23:54:39.679Z,86.24
2024-02-02T23:57:07.883Z,86.23
2024-02-02T23:59:35.990Z,86.11
